createdAt,value
2023-06-21T00:01:51.152Z,11.20
2023-06-21T00:05:59.617Z,11.10
2023-06-21T00:10:09.208Z,10.60
2023-06-21T00:14:17.174Z,11.20
2023-06-21T00:18:25.782Z,11.40
2023-06-21T00:22:35.000Z,11.10
2023-06-21T00:26:43.434Z,10.80
2023-06-21T00:30:51.500Z,11.50
2023-06-21T00:34:59.234Z,12.00
2023-06-21T00:39:07.940Z,12.00
2023-06-21T00:43:18.137Z,11.70
2023-06-21T00:47:26.065Z,11.70
2023-06-21T00:51:35.115Z,10.30
2023-06-21T00:55:43.077Z,11.20
2023-06-21T00:59:51.025Z,11.30
2023-06-21T01:04:00.300Z,11.70
2023-06-21T01:08:16.778Z,11.50
2023-06-21T01:12:34.969Z,10.70
2023-06-21T01:16:46.115Z,10.50
2023-06-21T01:20:58.691Z,11.30
2023-06-21T01:25:21.962Z,10.60
2023-06-21T01:29:34.530Z,11.50
2023-06-21T01:33:43.079Z,11.50
2023-06-21T01:37:52.705Z,11.70
2023-06-21T01:42:01.242Z,11.10
2023-06-21T01:46:11.295Z,11.40
2023-06-21T01:50:20.240Z,12.00
2023-06-21T01:54:28.698Z,12.10
2023-06-21T01:58:37.182Z,11.60
2023-06-21T02:02:48.556Z,11.80
2023-06-21T02:06:56.899Z,11.50
2023-06-21T02:11:06.918Z,11.50
2023-06-21T02:15:16.145Z,11.70
2023-06-21T02:19:26.361Z,12.30
2023-06-21T02:23:34.278Z,11.70
2023-06-21T02:27:42.533Z,11.10
2023-06-21T02:31:52.086Z,11.00
2023-06-21T02:36:00.316Z,11.80
2023-06-21T02:40:12.126Z,12.30
2023-06-21T02:44:21.305Z,12.50
2023-06-21T02:48:28.961Z,12.60
2023-06-21T02:52:36.966Z,11.60
2023-06-21T02:56:45.125Z,11.30
2023-06-21T03:00:53.340Z,11.50
2023-06-21T03:05:01.451Z,12.10
2023-06-21T03:09:09.121Z,11.90
2023-06-21T03:13:18.061Z,11.20
2023-06-21T03:17:28.222Z,10.90
2023-06-21T03:21:36.520Z,12.00
2023-06-21T03:25:44.568Z,11.50
2023-06-21T03:29:52.214Z,11.70
2023-06-21T03:34:00.153Z,12.00
2023-06-21T03:38:09.947Z,10.90
2023-06-21T03:42:18.157Z,10.90
2023-06-21T03:46:26.365Z,10.50
2023-06-21T03:50:34.340Z,10.90
2023-06-21T03:54:41.982Z,11.20
2023-06-21T03:58:50.427Z,11.70
2023-06-21T04:02:59.329Z,11.50
2023-06-21T04:07:09.884Z,11.20
2023-06-21T04:11:19.425Z,10.80
2023-06-21T04:15:31.907Z,10.10
2023-06-21T04:19:39.637Z,11.30
2023-06-21T04:23:47.769Z,11.10
2023-06-21T04:27:55.717Z,12.10
2023-06-21T04:32:06.292Z,11.70
2023-06-21T04:36:18.718Z,11.80
2023-06-21T04:40:27.957Z,10.70
2023-06-21T04:44:36.257Z,11.50
2023-06-21T04:48:43.868Z,11.20
2023-06-21T04:52:51.736Z,10.90
2023-06-21T04:56:59.907Z,10.60
2023-06-21T05:01:08.971Z,10.60
2023-06-21T05:05:16.750Z,10.50
2023-06-21T05:09:24.540Z,10.30
2023-06-21T05:13:33.240Z,11.60
2023-06-21T05:17:40.955Z,12.20
2023-06-21T05:21:48.571Z,11.50
2023-06-21T05:25:55.973Z,10.70
2023-06-21T05:30:03.879Z,11.40
2023-06-21T05:34:12.179Z,12.00
2023-06-21T05:38:19.515Z,12.30
2023-06-21T05:42:26.877Z,11.90
2023-06-21T05:46:35.611Z,11.50
2023-06-21T05:50:44.362Z,12.00
2023-06-21T05:54:52.288Z,12.10
2023-06-21T05:59:00.669Z,12.20
2023-06-21T06:03:10.026Z,12.40
2023-06-21T06:07:20.423Z,11.40
2023-06-21T06:11:28.648Z,12.70
2023-06-21T06:15:36.107Z,12.30
2023-06-21T06:19:44.375Z,12.50
2023-06-21T06:23:52.961Z,11.50
2023-06-21T06:28:00.569Z,12.70
2023-06-21T06:32:10.639Z,12.30
2023-06-21T06:36:21.206Z,12.90
2023-06-21T06:40:28.970Z,13.60
2023-06-21T06:44:38.493Z,12.70
2023-06-21T06:48:46.379Z,13.10
2023-06-21T06:52:55.104Z,12.70
2023-06-21T06:57:03.007Z,13.80
2023-06-21T07:01:11.562Z,13.00
2023-06-21T07:05:19.602Z,14.20
2023-06-21T07:09:28.010Z,14.30
2023-06-21T07:13:35.417Z,14.40
2023-06-21T07:17:43.184Z,13.60
2023-06-21T07:21:51.424Z,13.30
2023-06-21T07:25:58.841Z,13.10
2023-06-21T07:30:08.047Z,12.60
2023-06-21T07:34:17.286Z,12.80
2023-06-21T07:38:24.981Z,12.60
2023-06-21T07:42:32.673Z,12.10
2023-06-21T07:46:40.290Z,12.10
2023-06-21T07:50:48.107Z,11.50
2023-06-21T07:54:55.899Z,12.20
2023-06-21T07:59:03.869Z,12.50
2023-06-21T08:03:12.217Z,11.80
2023-06-21T08:07:22.551Z,10.70
2023-06-21T08:11:31.731Z,9.40
2023-06-21T08:15:39.457Z,9.50
2023-06-21T08:19:47.058Z,9.50
2023-06-21T08:23:54.724Z,10.00
2023-06-21T08:28:02.482Z,9.70
2023-06-21T08:32:10.972Z,9.40
2023-06-21T08:36:19.920Z,10.50
2023-06-21T08:40:32.263Z,9.60
2023-06-21T08:44:40.490Z,10.10
2023-06-21T08:48:50.516Z,8.90
2023-06-21T08:53:00.531Z,10.50
2023-06-21T08:57:13.284Z,10.30
2023-06-21T09:01:28.386Z,10.10
2023-06-21T09:05:43.583Z,10.20
2023-06-21T09:09:53.530Z,10.00
2023-06-21T09:14:01.454Z,10.30
2023-06-21T09:18:09.472Z,10.90
2023-06-21T09:22:17.827Z,10.30
2023-06-21T09:26:25.277Z,10.20
2023-06-21T09:30:38.933Z,10.20
2023-06-21T09:34:47.025Z,9.90
2023-06-21T09:38:55.174Z,10.20
2023-06-21T09:43:02.897Z,10.50
2023-06-21T09:47:15.157Z,10.90
2023-06-21T09:51:27.132Z,10.40
2023-06-21T09:55:34.701Z,10.90
2023-06-21T09:59:43.348Z,10.70
2023-06-21T10:03:51.331Z,11.10
2023-06-21T10:07:59.382Z,10.30
2023-06-21T10:12:07.929Z,10.50
2023-06-21T10:16:19.073Z,9.20
2023-06-21T10:20:27.513Z,9.60
2023-06-21T10:24:42.145Z,10.20
2023-06-21T10:28:53.410Z,10.40
2023-06-21T10:33:06.455Z,9.80
2023-06-21T10:37:23.402Z,10.30
2023-06-21T10:41:31.501Z,10.60
2023-06-21T10:45:40.702Z,10.70
2023-06-21T10:49:49.302Z,10.40
2023-06-21T10:53:58.973Z,9.80
2023-06-21T10:58:08.221Z,10.40
2023-06-21T11:02:15.746Z,10.40
2023-06-21T11:06:33.352Z,10.40
2023-06-21T11:10:48.303Z,10.20
2023-06-21T11:14:56.197Z,10.40
2023-06-21T11:19:08.933Z,10.20
2023-06-21T11:23:19.635Z,9.90
2023-06-21T11:27:27.674Z,10.00
2023-06-21T11:31:42.636Z,9.80
2023-06-21T11:35:53.793Z,10.00
2023-06-21T11:40:03.767Z,10.30
2023-06-21T11:44:13.221Z,11.10
2023-06-21T11:48:21.223Z,10.50
2023-06-21T11:52:35.069Z,10.90
2023-06-21T11:56:47.087Z,11.00
2023-06-21T12:00:55.381Z,10.50
2023-06-21T12:05:06.202Z,10.30
2023-06-21T12:09:14.484Z,10.50
2023-06-21T12:13:25.340Z,10.00
2023-06-21T12:17:32.600Z,10.60
2023-06-21T12:21:41.600Z,8.90
2023-06-21T12:25:51.438Z,9.60
2023-06-21T12:29:58.801Z,9.60
2023-06-21T12:34:06.738Z,7.90
2023-06-21T12:38:16.415Z,7.20
2023-06-21T12:42:30.690Z,6.80
2023-06-21T12:46:42.202Z,6.40
2023-06-21T12:50:50.236Z,5.90
2023-06-21T12:54:58.343Z,4.90
2023-06-21T12:59:06.813Z,5.20
2023-06-21T13:03:15.093Z,5.40
2023-06-21T13:07:23.191Z,4.90
2023-06-21T13:11:31.010Z,4.50
2023-06-21T13:15:39.086Z,4.80
2023-06-21T13:19:46.854Z,4.50
2023-06-21T13:23:55.811Z,4.90
2023-06-21T13:28:03.750Z,4.90
2023-06-21T13:32:14.346Z,4.50
2023-06-21T13:36:22.078Z,4.20
2023-06-21T13:40:30.252Z,4.30
2023-06-21T13:44:38.505Z,4.30
2023-06-21T13:48:46.833Z,4.30
2023-06-21T13:52:54.401Z,4.10
2023-06-21T13:57:05.184Z,3.50
2023-06-21T14:01:12.837Z,3.60
2023-06-21T14:05:22.948Z,3.90
2023-06-21T14:09:30.708Z,4.00
2023-06-21T14:13:38.759Z,4.20
2023-06-21T14:17:46.598Z,4.10
2023-06-21T14:21:54.917Z,4.00
2023-06-21T14:26:02.995Z,4.10
2023-06-21T14:30:16.101Z,4.20
2023-06-21T14:34:24.127Z,4.40
2023-06-21T14:38:32.373Z,4.40
2023-06-21T14:42:40.148Z,4.10
2023-06-21T14:46:47.976Z,4.40
2023-06-21T14:50:56.169Z,4.70
2023-06-21T14:55:04.236Z,4.90
2023-06-21T14:59:11.784Z,4.00
2023-06-21T15:03:19.654Z,4.40
2023-06-21T15:07:27.541Z,4.40
2023-06-21T15:11:35.245Z,4.10
2023-06-21T15:15:43.733Z,4.50
2023-06-21T15:19:51.840Z,4.30
2023-06-21T15:23:59.628Z,4.20
2023-06-21T15:28:07.609Z,4.70
2023-06-21T15:32:15.657Z,4.50
2023-06-21T15:36:23.055Z,4.10
2023-06-21T15:40:30.584Z,5.50
2023-06-21T15:44:38.409Z,6.80
2023-06-21T15:48:46.389Z,6.70
2023-06-21T15:52:54.043Z,7.40
2023-06-21T15:57:02.500Z,7.10
2023-06-21T16:01:13.393Z,7.20
2023-06-21T16:05:21.468Z,7.70
2023-06-21T16:09:29.451Z,8.40
2023-06-21T16:13:46.400Z,7.40
2023-06-21T16:17:55.370Z,7.40
2023-06-21T16:22:02.949Z,7.20
2023-06-21T16:26:10.476Z,6.80
2023-06-21T16:30:18.889Z,7.80
2023-06-21T16:34:26.552Z,7.20
2023-06-21T16:38:34.613Z,7.20
2023-06-21T16:42:42.320Z,7.00
2023-06-21T16:46:50.840Z,6.70
2023-06-21T16:50:58.774Z,6.40
2023-06-21T16:55:06.908Z,6.60
2023-06-21T16:59:14.943Z,6.50
2023-06-21T17:03:23.187Z,6.30
2023-06-21T17:07:31.467Z,7.00
2023-06-21T17:11:38.937Z,7.00
2023-06-21T17:15:46.614Z,6.80
2023-06-21T17:19:55.251Z,6.80
2023-06-21T17:24:03.444Z,6.20
2023-06-21T17:28:11.433Z,6.60
2023-06-21T17:32:20.105Z,6.00
2023-06-21T17:36:28.018Z,6.50
2023-06-21T17:40:36.100Z,6.60
2023-06-21T17:44:43.724Z,6.20
2023-06-21T17:48:51.456Z,6.40
2023-06-21T17:52:59.336Z,6.30
2023-06-21T17:57:08.611Z,6.00
2023-06-21T18:01:17.494Z,6.80
2023-06-21T18:05:25.824Z,7.10
2023-06-21T18:09:34.098Z,6.80
2023-06-21T18:13:42.155Z,6.80
2023-06-21T18:17:49.565Z,6.50
2023-06-21T18:22:11.337Z,6.10
2023-06-21T18:26:20.726Z,5.60
2023-06-21T18:30:28.648Z,7.00
2023-06-21T18:34:37.348Z,5.90
2023-06-21T18:38:45.970Z,6.20
2023-06-21T18:42:53.695Z,6.80
2023-06-21T18:47:05.347Z,7.30
2023-06-21T18:51:13.141Z,6.80
2023-06-21T18:55:22.065Z,6.40
2023-06-21T18:59:30.382Z,6.60
2023-06-21T19:03:38.706Z,6.80
2023-06-21T19:07:46.704Z,6.60
2023-06-21T19:11:54.126Z,6.80
2023-06-21T19:16:01.870Z,6.90
2023-06-21T19:20:12.081Z,7.20
2023-06-21T19:24:20.264Z,7.00
2023-06-21T19:28:28.050Z,7.10
2023-06-21T19:32:35.886Z,7.30
2023-06-21T19:36:43.322Z,7.50
2023-06-21T19:40:51.881Z,6.70
2023-06-21T19:44:59.346Z,7.20
2023-06-21T19:49:07.693Z,7.30
2023-06-21T19:53:15.742Z,7.30
2023-06-21T19:57:24.964Z,7.80
2023-06-21T20:01:33.222Z,7.70
2023-06-21T20:05:41.028Z,7.60
2023-06-21T20:09:48.468Z,7.90
2023-06-21T20:13:56.048Z,7.40
2023-06-21T20:18:03.713Z,7.40
2023-06-21T20:22:11.483Z,7.60
2023-06-21T20:26:21.657Z,8.00
2023-06-21T20:30:29.610Z,7.60
2023-06-21T20:34:38.745Z,7.90
2023-06-21T20:38:46.372Z,7.70
2023-06-21T20:42:56.176Z,7.30
2023-06-21T20:47:06.919Z,7.40
2023-06-21T20:51:14.716Z,8.10
2023-06-21T20:55:27.471Z,8.00
2023-06-21T20:59:35.171Z,8.50
2023-06-21T21:03:42.959Z,8.80
2023-06-21T21:07:51.393Z,8.50
2023-06-21T21:11:59.532Z,8.00
2023-06-21T21:16:07.489Z,8.90
2023-06-21T21:20:15.595Z,8.80
2023-06-21T21:24:23.042Z,9.20
2023-06-21T21:28:30.887Z,8.50
2023-06-21T21:32:39.021Z,8.30
2023-06-21T21:36:46.861Z,8.50
2023-06-21T21:40:54.382Z,8.70
2023-06-21T21:45:03.405Z,8.70
2023-06-21T21:49:10.903Z,9.30
2023-06-21T21:53:18.432Z,8.90
2023-06-21T21:57:27.031Z,8.70
2023-06-21T22:01:35.448Z,9.20
2023-06-21T22:05:43.246Z,9.00
2023-06-21T22:09:51.141Z,8.90
2023-06-21T22:13:58.874Z,9.20
2023-06-21T22:18:07.313Z,9.40
2023-06-21T22:22:18.756Z,10.00
2023-06-21T22:26:26.595Z,9.70
2023-06-21T22:30:39.308Z,9.80
2023-06-21T22:34:53.484Z,9.70
2023-06-21T22:39:01.644Z,9.60
2023-06-21T22:43:09.309Z,9.30
2023-06-21T22:47:18.885Z,9.00
2023-06-21T22:51:28.200Z,9.20
2023-06-21T22:55:37.124Z,10.10
2023-06-21T22:59:44.696Z,9.80
2023-06-21T23:03:52.840Z,10.20
2023-06-21T23:08:02.582Z,10.00
2023-06-21T23:12:11.966Z,9.70
2023-06-21T23:16:22.910Z,9.10
2023-06-21T23:20:34.588Z,9.70
2023-06-21T23:24:43.030Z,10.00
2023-06-21T23:28:50.990Z,9.70
2023-06-21T23:32:58.833Z,9.10
2023-06-21T23:37:06.563Z,9.80
2023-06-21T23:41:15.364Z,9.80
2023-06-21T23:45:23.190Z,10.40
2023-06-21T23:49:30.901Z,9.90
2023-06-21T23:53:39.610Z,10.30
2023-06-21T23:57:47.271Z,10.10
